Time;durP1;ratioP1;P1;durP2;ratioP2;P2;SDS_P1;SDS_P2;PMS_P1;PMS_P2;Temp;Humidity;BMP_temperature;BMP_pressure;BME280_temperature;BME280_humidity;BME280_pressure;Samples;Min_cycle;Max_cycle;Signal;HPM_P1;HPM_P2
2023/10/11 00:01:11;;;;;;;14.48;7.82;;;16.20;99.90;;;;;;5074293;28;20377;-68
2023/10/11 00:03:45;;;;;;;13.73;8.52;;;16.10;99.90;;;;;;5074717;28;20086;-68
2023/10/11 00:06:13;;;;;;;13.20;8.05;;;16.10;99.90;;;;;;5074183;28;20071;-68
2023/10/11 00:08:40;;;;;;;15.65;7.43;;;16.10;99.90;;;;;;5074630;28;20036;-68
2023/10/11 00:11:09;;;;;;;14.85;7.32;;;16.10;99.90;;;;;;5074209;28;20020;-68
2023/10/11 00:13:35;;;;;;;16.05;7.68;;;16.10;99.90;;;;;;5074282;28;20037;-68
2023/10/11 00:16:09;;;;;;;15.18;8.27;;;16.00;99.90;;;;;;5074067;28;20179;-68
2023/10/11 00:18:37;;;;;;;13.75;7.57;;;16.00;99.90;;;;;;5074260;28;20031;-68
2023/10/11 00:21:35;;;;;;;16.95;8.60;;;16.00;99.90;;;;;;5073935;28;20028;-68
2023/10/11 00:23:50;;;;;;;17.60;8.05;;;16.00;99.90;;;;;;5073487;28;20093;-67
2023/10/11 00:26:17;;;;;;;15.82;8.27;;;15.90;99.90;;;;;;5073686;28;20024;-68
2023/10/11 00:28:43;;;;;;;15.15;7.90;;;15.90;99.90;;;;;;5074242;28;20116;-68
2023/10/11 00:31:18;;;;;;;18.27;8.43;;;15.90;99.90;;;;;;5073420;28;20193;-68
2023/10/11 00:33:46;;;;;;;16.25;8.52;;;15.80;99.90;;;;;;5072826;28;20077;-68
2023/10/11 00:36:15;;;;;;;16.92;8.30;;;15.80;99.90;;;;;;5073592;28;20040;-68
2023/10/11 00:38:47;;;;;;;15.20;8.57;;;15.80;99.90;;;;;;5074017;28;20490;-68
2023/10/11 00:41:15;;;;;;;19.75;8.32;;;15.70;99.90;;;;;;5073500;28;20036;-67
2023/10/11 00:43:47;;;;;;;21.27;8.40;;;15.70;99.90;;;;;;5073812;28;20064;-67
2023/10/11 00:46:14;;;;;;;16.85;8.27;;;15.70;99.90;;;;;;5073663;28;20036;-68
2023/10/11 00:48:54;;;;;;;14.43;7.85;;;15.70;99.90;;;;;;5073698;28;20031;-67
2023/10/11 00:51:29;;;;;;;18.33;9.10;;;15.60;99.90;;;;;;5073621;28;20027;-67
2023/10/11 00:53:57;;;;;;;15.68;8.70;;;15.60;99.90;;;;;;5073666;28;20121;-67
2023/10/11 00:56:26;;;;;;;17.88;8.07;;;15.60;99.90;;;;;;5073448;28;20449;-68
2023/10/11 00:58:53;;;;;;;15.13;7.50;;;15.60;99.90;;;;;;5073763;28;20125;-67
2023/10/11 01:01:22;;;;;;;17.45;8.15;;;15.60;99.90;;;;;;5073159;28;20453;-68
2023/10/11 01:03:48;;;;;;;16.98;8.20;;;15.60;99.90;;;;;;5073220;28;20385;-68
2023/10/11 01:06:13;;;;;;;15.10;7.78;;;15.60;99.90;;;;;;5073093;28;20032;-68
2023/10/11 01:08:40;;;;;;;19.10;8.38;;;15.60;99.90;;;;;;5075761;28;20029;-68
2023/10/11 01:11:15;;;;;;;12.93;7.88;;;15.60;99.90;;;;;;5072677;28;20484;-69
2023/10/11 01:13:42;;;;;;;17.05;7.38;;;15.60;99.90;;;;;;5073334;28;20032;-68
2023/10/11 01:16:14;;;;;;;14.30;7.80;;;15.50;99.90;;;;;;5072889;28;20020;-69
2023/10/11 01:18:40;;;;;;;19.77;8.50;;;15.50;99.90;;;;;;5073477;28;20029;-68
2023/10/11 01:21:07;;;;;;;15.60;7.97;;;15.50;99.90;;;;;;5072324;28;20028;-69
2023/10/11 01:23:37;;;;;;;14.88;8.13;;;15.40;99.90;;;;;;5073129;28;20055;-68
2023/10/11 01:26:07;;;;;;;21.52;7.60;;;15.40;99.90;;;;;;5073405;28;20052;-67
2023/10/11 01:28:34;;;;;;;17.50;7.57;;;15.50;99.90;;;;;;5073127;28;20056;-68
2023/10/11 01:31:01;;;;;;;15.55;8.05;;;15.40;99.90;;;;;;5073040;28;20021;-68
2023/10/11 01:33:27;;;;;;;19.33;8.35;;;15.40;99.90;;;;;;5072494;28;20051;-69
2023/10/11 01:35:53;;;;;;;16.33;8.18;;;15.40;99.90;;;;;;5072911;28;20044;-68
2023/10/11 01:38:18;;;;;;;14.40;7.68;;;15.40;99.90;;;;;;5072821;28;20032;-67
2023/10/11 01:40:44;;;;;;;15.75;7.93;;;15.40;99.90;;;;;;5072743;28;20032;-67
2023/10/11 01:43:10;;;;;;;16.17;8.88;;;15.40;99.90;;;;;;5072687;28;20094;-67
2023/10/11 01:45:39;;;;;;;15.50;7.70;;;15.40;99.90;;;;;;5073091;28;20032;-69
2023/10/11 01:48:05;;;;;;;16.83;8.00;;;15.40;99.90;;;;;;5075497;28;20032;-67
2023/10/11 01:50:31;;;;;;;14.90;8.43;;;15.40;99.90;;;;;;5072525;28;20472;-67
2023/10/11 01:52:57;;;;;;;16.23;7.68;;;15.30;99.90;;;;;;5072748;28;20075;-67
2023/10/11 01:55:22;;;;;;;19.33;8.05;;;15.30;99.90;;;;;;5072000;28;20111;-67
2023/10/11 01:57:50;;;;;;;12.50;7.30;;;15.30;99.90;;;;;;5072651;28;20056;-67
2023/10/11 02:00:20;;;;;;;18.17;7.50;;;15.30;99.90;;;;;;5072339;28;20094;-68
2023/10/11 02:02:58;;;;;;;14.07;7.90;;;15.30;99.90;;;;;;5072884;28;20056;-67
2023/10/11 02:05:31;;;;;;;14.13;6.43;;;15.30;99.90;;;;;;5072383;28;20483;-67
2023/10/11 02:07:56;;;;;;;18.25;7.00;;;15.20;99.90;;;;;;5072667;28;20025;-68
2023/10/11 02:10:28;;;;;;;17.38;8.27;;;15.20;99.90;;;;;;5072247;28;20031;-68
2023/10/11 02:12:57;;;;;;;12.18;7.45;;;15.20;99.90;;;;;;5072755;28;20029;-68
2023/10/11 02:15:29;;;;;;;14.95;7.72;;;15.10;99.90;;;;;;5072202;28;20051;-67
2023/10/11 02:17:56;;;;;;;13.63;7.78;;;15.10;99.90;;;;;;5072635;28;20082;-68
2023/10/11 02:20:22;;;;;;;15.77;7.45;;;15.10;99.90;;;;;;5072131;28;20025;-69
2023/10/11 02:22:52;;;;;;;11.63;6.55;;;15.10;99.90;;;;;;5072611;28;20119;-68
2023/10/11 02:25:24;;;;;;;20.73;7.55;;;15.00;99.90;;;;;;5072368;28;20029;-68
2023/10/11 02:27:51;;;;;;;13.93;6.20;;;15.00;99.90;;;;;;5072487;28;20480;-68
2023/10/11 02:30:21;;;;;;;21.85;7.18;;;15.00;99.90;;;;;;5071770;28;20426;-67
2023/10/11 02:32:58;;;;;;;10.65;6.45;;;15.00;99.90;;;;;;5073489;28;20517;-67
2023/10/11 02:35:26;;;;;;;16.92;6.55;;;15.00;99.90;;;;;;5075947;28;20029;-67
2023/10/11 02:37:55;;;;;;;12.38;6.55;;;14.90;99.90;;;;;;5076266;28;20415;-68
2023/10/11 02:40:25;;;;;;;12.18;6.10;;;14.90;99.90;;;;;;5075804;28;20035;-68
2023/10/11 02:42:56;;;;;;;10.98;5.88;;;14.90;99.90;;;;;;5076235;28;20025;-68
2023/10/11 02:45:22;;;;;;;;;;;14.90;99.90;;;;;;5076172;28;20029;-68
2023/10/11 02:47:59;;;;;;;14.45;5.28;;;14.90;99.90;;;;;;5076251;28;19904;-68
2023/10/11 02:50:28;;;;;;;11.40;6.20;;;14.90;99.90;;;;;;5075656;28;20037;-68
2023/10/11 02:53:05;;;;;;;12.93;5.70;;;14.90;99.90;;;;;;5075788;28;20128;-68
2023/10/11 02:55:30;;;;;;;12.65;5.25;;;14.90;99.90;;;;;;5075527;28;20044;-68
2023/10/11 02:58:21;;;;;;;13.57;5.93;;;14.90;99.90;;;;;;5075541;28;20052;-68
2023/10/11 03:00:47;;;;;;;14.10;5.90;;;14.90;99.90;;;;;;5075821;28;20059;-68
2023/10/11 03:03:15;;;;;;;14.20;6.55;;;14.80;99.90;;;;;;5077773;28;20036;-70
2023/10/11 03:05:41;;;;;;;12.25;5.65;;;14.90;99.90;;;;;;5075944;28;20081;-68
2023/10/11 03:08:21;;;;;;;16.40;6.70;;;14.90;99.90;;;;;;5075435;28;20029;-68
2023/10/11 03:10:53;;;;;;;10.68;5.78;;;14.90;99.90;;;;;;5075738;28;20052;-68
2023/10/11 03:13:24;;;;;;;12.85;6.07;;;14.90;99.90;;;;;;5074002;28;20062;-68
2023/10/11 03:15:56;;;;;;;14.60;6.78;;;14.90;99.90;;;;;;5075626;28;20416;-68
2023/10/11 03:18:32;;;;;;;17.25;6.22;;;14.80;99.90;;;;;;5073995;28;20307;-68
2023/10/11 03:21:15;;;;;;;17.08;6.53;;;14.90;99.90;;;;;;5075704;28;20111;-68
2023/10/11 03:23:45;;;;;;;14.10;5.35;;;14.80;99.90;;;;;;5075621;28;20111;-68
2023/10/11 03:26:17;;;;;;;21.27;5.57;;;14.80;99.90;;;;;;5074079;28;20047;-67
2023/10/11 03:28:57;;;;;;;18.38;5.95;;;14.80;99.90;;;;;;5075714;28;20020;-68
2023/10/11 03:31:31;;;;;;;12.80;6.13;;;14.80;99.90;;;;;;5075010;28;20032;-68
2023/10/11 03:33:59;;;;;;;14.05;5.82;;;14.90;99.90;;;;;;5075381;28;20043;-67
2023/10/11 03:36:43;;;;;;;11.05;5.53;;;14.90;99.90;;;;;;5074847;28;20362;-67
2023/10/11 03:39:15;;;;;;;16.92;5.80;;;14.90;99.90;;;;;;5075026;28;20035;-67
2023/10/11 03:41:45;;;;;;;15.00;5.82;;;14.90;99.90;;;;;;5075109;28;20024;-67
2023/10/11 03:44:15;;;;;;;9.68;5.13;;;14.90;99.90;;;;;;5074964;28;20037;-69
2023/10/11 03:46:46;;;;;;;18.98;5.78;;;14.90;99.90;;;;;;5095045;28;20039;-68
2023/10/11 03:51:43;;;;;;;11.35;5.35;;;14.90;99.90;;;;;;5094386;28;20228;-68
2023/10/11 03:54:24;;;;;;;15.02;5.65;;;14.90;99.90;;;;;;5076902;28;20035;-68
2023/10/11 03:56:54;;;;;;;14.85;5.82;;;14.80;99.90;;;;;;5074964;28;20107;-68
2023/10/11 03:59:21;;;;;;;16.60;5.18;;;14.80;99.90;;;;;;5072768;28;20087;-68
2023/10/11 04:01:49;;;;;;;13.63;4.90;;;14.80;99.90;;;;;;5074636;28;20036;-67
2023/10/11 04:04:16;;;;;;;10.05;5.13;;;14.80;99.90;;;;;;5074640;28;20376;-67
2023/10/11 04:06:42;;;;;;;12.40;5.30;;;14.80;99.90;;;;;;5074290;28;20028;-67
2023/10/11 04:09:22;;;;;;;14.75;5.55;;;14.80;99.90;;;;;;5074275;28;20046;-67
2023/10/11 04:11:55;;;;;;;16.67;5.65;;;14.80;99.90;;;;;;5074520;28;20035;-67
2023/10/11 04:14:32;;;;;;;16.58;5.90;;;14.80;99.90;;;;;;5074201;28;20028;-67
2023/10/11 04:17:00;;;;;;;12.55;4.90;;;14.80;99.90;;;;;;5074535;28;20036;-67
2023/10/11 04:19:26;;;;;;;15.98;6.90;;;14.70;99.90;;;;;;5073969;28;20031;-68
2023/10/11 04:24:19;;;;;;;10.30;5.57;;;14.70;99.90;;;;;;5074213;28;20054;-68
2023/10/11 04:26:53;;;;;;;12.73;5.97;;;14.60;99.90;;;;;;5074403;28;20028;-68
2023/10/11 04:29:23;;;;;;;11.57;5.95;;;14.60;99.90;;;;;;5074539;28;20462;-70
2023/10/11 04:32:04;;;;;;;13.55;6.90;;;14.60;99.90;;;;;;5074449;28;20041;-68
2023/10/11 04:34:32;;;;;;;14.65;7.25;;;14.60;99.90;;;;;;5074172;28;20052;-69
2023/10/11 04:37:04;;;;;;;22.08;8.68;;;14.50;99.90;;;;;;5073992;28;20470;-67
2023/10/11 04:39:49;;;;;;;15.25;8.88;;;14.40;99.90;;;;;;5073810;28;20033;-67
2023/10/11 04:42:19;;;;;;;20.33;8.77;;;14.40;99.90;;;;;;5073845;28;20441;-67
2023/10/11 04:44:54;;;;;;;14.77;8.70;;;14.30;99.90;;;;;;5077193;28;20027;-67
2023/10/11 04:47:23;;;;;;;14.15;9.23;;;14.30;99.90;;;;;;5084290;28;20028;-67
2023/10/11 04:49:48;;;;;;;15.93;9.20;;;14.20;99.90;;;;;;5081605;28;20027;-67
2023/10/11 04:52:22;;;;;;;21.65;8.98;;;14.20;99.90;;;;;;5093800;28;20028;-67
2023/10/11 04:54:54;;;;;;;14.18;9.98;;;14.10;99.90;;;;;;5077080;28;20485;-68
2023/10/11 04:57:34;;;;;;;13.45;9.68;;;14.10;99.90;;;;;;5073147;28;20110;-67
2023/10/11 05:00:00;;;;;;;14.15;8.65;;;14.00;99.90;;;;;;5073658;28;20024;-68
2023/10/11 05:02:32;;;;;;;12.63;8.52;;;14.00;99.90;;;;;;5072871;28;20027;-67
2023/10/11 05:05:05;;;;;;;13.23;8.13;;;13.90;99.90;;;;;;5073756;28;20028;-68
2023/10/11 05:07:32;;;;;;;11.93;8.43;;;13.90;99.90;;;;;;5091691;28;20120;-67
2023/10/11 05:10:43;;;;;;;16.23;8.63;;;13.90;99.90;;;;;;5086907;28;20097;-68
2023/10/11 05:12:57;;;;;;;11.90;8.27;;;13.80;99.90;;;;;;5069646;28;20395;-68
2023/10/11 05:15:29;;;;;;;14.00;8.05;;;13.80;99.90;;;;;;5073862;28;20047;-70
2023/10/11 05:18:06;;;;;;;12.40;8.77;;;13.80;99.90;;;;;;5073564;28;20078;-68
2023/10/11 05:23:07;;;;;;;12.73;7.95;;;13.80;99.90;;;;;;5073501;28;20028;-68
2023/10/11 05:25:56;;;;;;;10.90;8.75;;;13.80;99.90;;;;;;5072902;28;20028;-68
2023/10/11 05:31:01;;;;;;;9.82;8.38;;;13.80;99.90;;;;;;5072654;28;20035;-68
2023/10/11 05:33:41;;;;;;;12.90;8.13;;;13.70;99.90;;;;;;5072575;28;20135;-68
2023/10/11 05:52:44;;;;;;;10.20;7.43;;;13.70;99.90;;;;;;5050320;28;20041;-68
2023/10/11 05:55:10;;;;;;;9.35;8.07;;;13.70;99.90;;;;;;5072600;28;20039;-68
2023/10/11 05:57:35;;;;;;;11.57;8.13;;;13.80;99.90;;;;;;5072184;28;20053;-68
2023/10/11 06:00:10;;;;;;;9.73;8.55;;;13.70;99.90;;;;;;5072406;28;20025;-68
2023/10/11 06:02:38;;;;;;;14.30;7.90;;;13.80;99.90;;;;;;5072242;28;20457;-67
2023/10/11 06:05:07;;;;;;;9.77;7.72;;;13.80;99.90;;;;;;5072546;28;20029;-68
2023/10/11 06:07:37;;;;;;;11.50;8.45;;;13.80;99.90;;;;;;5074593;28;20048;-68
2023/10/11 06:10:06;;;;;;;16.27;7.82;;;13.80;99.90;;;;;;5076952;28;20044;-68
2023/10/11 06:12:33;;;;;;;10.38;7.47;;;13.90;99.90;;;;;;5076192;28;20480;-69
2023/10/11 06:15:15;;;;;;;8.32;7.13;;;13.90;99.90;;;;;;5076943;28;20021;-68
2023/10/11 06:17:48;;;;;;;12.65;7.53;;;13.90;99.90;;;;;;5076219;28;20029;-68
2023/10/11 06:20:38;;;;;;;9.88;7.25;;;14.00;99.90;;;;;;5076245;28;20029;-68
2023/10/11 06:23:03;;;;;;;9.10;6.78;;;14.00;99.90;;;;;;5076234;28;20060;-68
2023/10/11 06:25:49;;;;;;;8.55;7.15;;;14.10;99.90;;;;;;5076393;28;20117;-68
2023/10/11 06:28:16;;;;;;;12.18;6.88;;;14.20;99.90;;;;;;5076462;28;20025;-68
2023/10/11 06:30:43;;;;;;;9.48;6.32;;;14.10;99.90;;;;;;5075940;28;20479;-67
2023/10/11 06:33:12;;;;;;;7.07;6.38;;;14.20;99.90;;;;;;5076320;28;20036;-69
2023/10/11 06:35:47;;;;;;;9.52;6.40;;;14.30;99.90;;;;;;5075984;28;20025;-67
2023/10/11 06:38:12;;;;;;;8.20;6.55;;;14.30;99.90;;;;;;5076351;28;20028;-69
2023/10/11 06:40:38;;;;;;;6.90;6.15;;;14.30;99.90;;;;;;5074626;28;20024;-69
2023/10/11 06:43:12;;;;;;;11.18;6.28;;;14.40;99.90;;;;;;5076247;28;20115;-69
2023/10/11 06:45:40;;;;;;;8.75;6.78;;;14.40;99.90;;;;;;5075518;28;20477;-69
2023/10/11 06:48:08;;;;;;;7.88;5.82;;;14.50;99.90;;;;;;5075914;28;20032;-68
2023/10/11 06:50:36;;;;;;;9.45;6.15;;;14.60;99.90;;;;;;5075525;28;20059;-67
2023/10/11 06:53:06;;;;;;;10.30;6.63;;;14.60;99.90;;;;;;5076006;28;20032;-68
2023/10/11 06:55:33;;;;;;;9.32;6.28;;;14.70;99.90;;;;;;5075554;28;20023;-68
2023/10/11 06:58:03;;;;;;;13.93;6.70;;;14.70;99.90;;;;;;5075511;28;20482;-68
2023/10/11 07:00:36;;;;;;;9.48;5.88;;;14.80;99.90;;;;;;5076264;28;20025;-68
2023/10/11 07:03:09;;;;;;;11.05;5.63;;;14.80;99.90;;;;;;5076039;28;20020;-68
2023/10/11 07:05:46;;;;;;;12.68;6.32;;;14.90;99.90;;;;;;5076078;28;20028;-69
2023/10/11 07:08:17;;;;;;;9.95;5.70;;;14.90;99.90;;;;;;5076087;28;20050;-69
2023/10/11 07:13:49;;;;;;;10.93;6.13;;;15.00;99.90;;;;;;5075431;28;20079;-68
2023/10/11 07:16:18;;;;;;;8.30;5.75;;;15.10;99.90;;;;;;5075813;28;20054;-68
2023/10/11 07:18:45;;;;;;;7.43;5.78;;;15.30;99.90;;;;;;5074051;28;20534;-67
2023/10/11 07:21:11;;;;;;;11.18;5.88;;;15.60;99.90;;;;;;5075638;28;20063;-69
2023/10/11 07:26:23;;;;;;;9.25;5.82;;;16.10;99.90;;;;;;5075382;28;20116;-69
2023/10/11 07:28:53;;;;;;;7.22;4.97;;;16.30;99.90;;;;;;5074877;28;20036;-69
2023/10/11 07:31:31;;;;;;;9.60;5.45;;;16.60;99.90;;;;;;5074939;28;20097;-69
2023/10/11 07:34:05;;;;;;;7.40;4.88;;;16.80;99.90;;;;;;5074746;28;20087;-67
2023/10/11 07:36:32;;;;;;;9.20;5.25;;;17.00;99.90;;;;;;5075076;28;20528;-68
2023/10/11 07:39:00;;;;;;;7.80;4.80;;;17.20;99.90;;;;;;5075796;28;20110;-67
2023/10/11 07:41:29;;;;;;;13.88;6.03;;;17.40;99.90;;;;;;5074965;28;20029;-68
2023/10/11 07:44:01;;;;;;;9.30;5.40;;;17.60;99.90;;;;;;5074353;28;20044;-68
2023/10/11 07:46:28;;;;;;;8.48;4.80;;;17.70;99.90;;;;;;5074930;28;20029;-68
2023/10/11 07:49:01;;;;;;;9.40;5.25;;;17.90;99.90;;;;;;5074478;28;20036;-68
2023/10/11 07:51:30;;;;;;;9.13;5.13;;;18.10;99.90;;;;;;5074945;28;20027;-69
2023/10/11 07:53:56;;;;;;;7.97;4.97;;;18.30;99.90;;;;;;5075394;28;20062;-69
2023/10/11 07:56:22;;;;;;;8.85;4.95;;;18.40;99.90;;;;;;5074499;28;20036;-68
2023/10/11 07:58:49;;;;;;;8.38;4.85;;;18.60;99.90;;;;;;5074356;28;20048;-69
2023/10/11 08:01:16;;;;;;;10.90;5.20;;;18.80;99.90;;;;;;5074610;28;20100;-69
2023/10/11 08:03:44;;;;;;;10.07;4.78;;;19.00;99.90;;;;;;5074177;28;20036;-68
2023/10/11 08:06:12;;;;;;;13.82;5.15;;;19.20;99.90;;;;;;5074698;28;20056;-68
2023/10/11 08:08:38;;;;;;;11.35;4.78;;;19.40;99.90;;;;;;5074053;28;20428;-67
2023/10/11 08:11:18;;;;;;;12.30;5.05;;;19.50;98.70;;;;;;5074163;28;20066;-68
2023/10/11 08:13:45;;;;;;;7.47;4.73;;;19.70;98.50;;;;;;5073735;28;20040;-68
2023/10/11 08:16:17;;;;;;;14.65;4.70;;;19.90;97.10;;;;;;5074036;28;20393;-68
2023/10/11 08:18:44;;;;;;;18.05;5.05;;;20.00;96.30;;;;;;5072817;28;20033;-69
2023/10/11 08:21:10;;;;;;;7.65;4.70;;;20.20;95.20;;;;;;5074160;28;20108;-68
2023/10/11 08:23:36;;;;;;;7.32;4.97;;;20.30;94.50;;;;;;5074158;28;20081;-68
2023/10/11 08:26:07;;;;;;;12.45;4.93;;;20.30;94.50;;;;;;5073783;28;20081;-68
2023/10/11 08:28:34;;;;;;;;;;;20.30;94.00;;;;;;5074719;28;20017;-68
2023/10/11 08:31:00;;;;;;;7.22;5.13;;;20.40;93.90;;;;;;5073706;28;19912;-69
2023/10/11 08:33:30;;;;;;;8.25;5.30;;;20.50;93.50;;;;;;5073863;28;20036;-68
2023/10/11 08:35:57;;;;;;;9.20;5.43;;;20.50;93.60;;;;;;5072382;28;20158;-68
2023/10/11 08:38:25;;;;;;;12.98;5.22;;;20.60;93.50;;;;;;5072586;28;20024;-67
2023/10/11 08:40:58;;;;;;;10.55;5.80;;;20.60;94.10;;;;;;5073117;28;20082;-68
2023/10/11 08:43:25;;;;;;;8.18;4.47;;;20.70;93.50;;;;;;5073833;28;20456;-68
2023/10/11 08:46:01;;;;;;;8.93;5.30;;;20.70;92.30;;;;;;5073388;28;20025;-68
2023/10/11 08:48:27;;;;;;;12.07;7.00;;;20.70;92.70;;;;;;5072399;28;20507;-67
2023/10/11 08:50:54;;;;;;;10.85;7.10;;;20.80;92.80;;;;;;5073327;28;20056;-68
2023/10/11 08:53:31;;;;;;;10.98;5.93;;;20.80;92.40;;;;;;5073589;28;20037;-68
2023/10/11 08:55:56;;;;;;;13.57;6.15;;;20.80;92.50;;;;;;5072945;28;20489;-67
2023/10/11 08:58:29;;;;;;;10.00;6.57;;;20.90;92.80;;;;;;5073266;28;20221;-67
2023/10/11 09:00:55;;;;;;;11.10;6.78;;;20.90;92.30;;;;;;5073056;28;20465;-68
2023/10/11 09:03:26;;;;;;;13.63;6.90;;;20.90;92.00;;;;;;5073475;28;20041;-68
2023/10/11 09:05:58;;;;;;;10.90;6.35;;;21.00;92.80;;;;;;5073113;28;20112;-68
2023/10/11 09:08:27;;;;;;;12.73;6.80;;;21.00;92.70;;;;;;5073282;28;20028;-68
2023/10/11 09:11:15;;;;;;;12.20;7.18;;;21.10;92.50;;;;;;5072827;28;20039;-68
2023/10/11 09:13:42;;;;;;;9.90;7.05;;;21.20;92.70;;;;;;5073098;28;20041;-69
2023/10/11 09:16:13;;;;;;;14.50;8.27;;;21.20;91.90;;;;;;5075644;28;20032;-68
2023/10/11 09:18:42;;;;;;;11.45;7.30;;;21.30;91.90;;;;;;5073266;28;20047;-68
2023/10/11 09:21:17;;;;;;;9.50;6.53;;;21.20;91.80;;;;;;5073098;28;20025;-68
2023/10/11 09:23:47;;;;;;;14.27;8.27;;;21.30;92.10;;;;;;5072767;28;20033;-66
2023/10/11 09:26:23;;;;;;;12.00;7.00;;;21.20;91.60;;;;;;5073123;28;20025;-67
2023/10/11 09:28:58;;;;;;;10.10;6.82;;;21.20;92.20;;;;;;5072696;28;20491;-68
2023/10/11 09:31:25;;;;;;;13.43;6.90;;;21.20;92.60;;;;;;5073082;28;20107;-68
2023/10/11 09:33:59;;;;;;;13.02;7.25;;;21.10;91.80;;;;;;5072562;28;20032;-68
2023/10/11 09:36:28;;;;;;;13.02;7.93;;;21.10;92.00;;;;;;5073005;28;20073;-68
2023/10/11 09:38:54;;;;;;;13.55;7.40;;;21.10;92.00;;;;;;5072281;28;20504;-68
2023/10/11 09:41:25;;;;;;;18.42;7.95;;;21.10;92.00;;;;;;5083213;28;20472;-67
2023/10/11 09:43:57;;;;;;;11.63;6.47;;;21.00;92.50;;;;;;5092653;28;20059;-67
2023/10/11 09:46:29;;;;;;;13.45;6.97;;;21.10;93.00;;;;;;5092961;28;20031;-68
2023/10/11 09:48:56;;;;;;;8.95;6.68;;;21.10;92.30;;;;;;5091273;28;20460;-69
2023/10/11 09:51:24;;;;;;;15.40;7.25;;;21.10;92.00;;;;;;5092811;28;20103;-69
2023/10/11 09:53:50;;;;;;;9.25;7.07;;;21.20;92.40;;;;;;5092315;28;20043;-69
2023/10/11 09:56:54;;;;;;;11.90;7.22;;;21.20;92.40;;;;;;5092792;28;20032;-68
2023/10/11 09:59:34;;;;;;;12.15;6.53;;;21.30;91.90;;;;;;5052510;28;20050;-68
2023/10/11 10:02:06;;;;;;;12.13;6.93;;;21.30;92.00;;;;;;5051212;28;20029;-68
2023/10/11 10:04:50;;;;;;;9.57;6.38;;;21.30;92.00;;;;;;5052519;28;20059;-68
2023/10/11 10:07:25;;;;;;;15.00;7.43;;;21.40;91.80;;;;;;5052578;28;20047;-68
2023/10/11 10:10:00;;;;;;;12.57;6.97;;;21.50;92.20;;;;;;5052315;28;20062;-68
2023/10/11 10:12:35;;;;;;;11.13;6.50;;;21.60;92.10;;;;;;5052288;28;20086;-68
2023/10/11 10:15:20;;;;;;;13.60;6.97;;;21.70;91.70;;;;;;5050748;28;20025;-68
2023/10/11 10:18:00;;;;;;;12.07;6.97;;;21.80;92.10;;;;;;5052335;28;20025;-68
2023/10/11 10:20:41;;;;;;;12.05;7.20;;;22.00;92.10;;;;;;5052381;28;20031;-68
2023/10/11 10:23:20;;;;;;;14.85;6.43;;;22.10;91.50;;;;;;5052015;28;20068;-67
2023/10/11 10:26:05;;;;;;;14.85;7.43;;;22.20;90.40;;;;;;5052305;28;20037;-68
2023/10/11 10:28:36;;;;;;;10.60;6.45;;;22.30;90.40;;;;;;5052317;28;20104;-67
2023/10/11 10:31:06;;;;;;;;;;;22.40;90.40;;;;;;5052235;28;20029;-68
2023/10/11 10:33:35;;;;;;;11.93;7.05;;;22.50;89.90;;;;;;5052206;28;19923;-68
2023/10/11 10:36:28;;;;;;;12.02;6.22;;;22.60;89.00;;;;;;5051741;28;20033;-69
2023/10/11 10:41:40;;;;;;;13.27;6.80;;;22.70;87.80;;;;;;5052269;28;20036;-68
2023/10/11 10:44:20;;;;;;;11.73;5.85;;;22.70;87.70;;;;;;5051598;28;20029;-71
2023/10/11 10:46:57;;;;;;;10.23;6.32;;;22.80;88.00;;;;;;5051738;28;20029;-69
2023/10/11 10:49:47;;;;;;;13.10;6.00;;;23.00;87.50;;;;;;5052113;28;20044;-68
2023/10/11 10:52:25;;;;;;;10.75;5.35;;;23.10;87.30;;;;;;5066242;28;20061;-68
2023/10/11 10:55:03;;;;;;;13.50;5.68;;;23.20;86.00;;;;;;5054344;28;20155;-69
2023/10/11 10:57:33;;;;;;;12.60;5.53;;;23.30;83.50;;;;;;5064641;28;20044;-69
2023/10/11 11:00:05;;;;;;;8.53;4.67;;;23.30;82.30;;;;;;5095308;28;20433;-69
2023/10/11 11:02:36;;;;;;;9.77;6.15;;;23.40;83.70;;;;;;5096297;28;20299;-68
2023/10/11 11:05:15;;;;;;;14.38;5.25;;;23.50;83.70;;;;;;5095514;28;20256;-68
2023/10/11 11:07:47;;;;;;;15.70;5.40;;;23.60;83.50;;;;;;5095938;28;20487;-68
2023/10/11 11:10:20;;;;;;;9.73;5.07;;;23.60;82.80;;;;;;5095392;28;20035;-67
2023/10/11 11:12:47;;;;;;;11.75;5.90;;;23.80;82.60;;;;;;5095835;28;20035;-67
2023/10/11 11:15:20;;;;;;;12.40;5.90;;;23.80;80.90;;;;;;5095415;28;20020;-68
2023/10/11 11:17:48;;;;;;;13.85;5.82;;;23.90;81.30;;;;;;5092191;28;20020;-68
2023/10/11 11:20:16;;;;;;;11.10;6.00;;;23.90;80.90;;;;;;5094814;28;20115;-67
2023/10/11 11:22:45;;;;;;;10.48;5.28;;;24.00;80.80;;;;;;5095493;28;20464;-69
2023/10/11 11:25:49;;;;;;;13.88;6.50;;;23.90;80.50;;;;;;5095199;28;20307;-67
2023/10/11 11:28:25;;;;;;;9.20;5.45;;;24.00;81.00;;;;;;5091704;28;20481;-69
2023/10/11 11:31:10;;;;;;;9.25;5.22;;;24.00;80.50;;;;;;5095547;28;20035;-68
2023/10/11 11:33:36;;;;;;;15.85;5.85;;;24.00;80.10;;;;;;5095342;28;20475;-68
2023/10/11 11:36:11;;;;;;;11.00;4.53;;;24.00;79.70;;;;;;5095007;28;20063;-68
2023/10/11 11:38:37;;;;;;;11.07;4.90;;;24.10;80.20;;;;;;5095382;28;20032;-68
2023/10/11 11:41:15;;;;;;;9.38;4.68;;;24.20;78.70;;;;;;5094717;28;20024;-68
2023/10/11 11:43:41;;;;;;;13.25;5.10;;;24.20;78.10;;;;;;5095403;28;20043;-68
2023/10/11 11:46:06;;;;;;;12.52;5.18;;;24.20;78.40;;;;;;5094686;28;20028;-68
2023/10/11 11:48:41;;;;;;;15.13;5.28;;;24.30;79.40;;;;;;5091600;28;20027;-68
2023/10/11 11:51:13;;;;;;;11.18;4.85;;;24.30;79.30;;;;;;5094701;28;20069;-68
2023/10/11 11:53:48;;;;;;;12.80;4.78;;;24.40;79.30;;;;;;5094675;28;20369;-68
2023/10/11 11:56:14;;;;;;;16.00;5.90;;;24.50;79.00;;;;;;5095173;28;20036;-67
2023/10/11 11:58:46;;;;;;;10.30;5.13;;;24.50;78.80;;;;;;5095413;28;20048;-67
2023/10/11 12:01:19;;;;;;;17.00;5.38;;;24.50;78.40;;;;;;5091669;28;20077;-67
2023/10/11 12:03:54;;;;;;;11.70;5.35;;;24.50;79.40;;;;;;5095203;28;20114;-67
2023/10/11 12:06:22;;;;;;;15.10;4.78;;;24.60;80.00;;;;;;5095378;28;20055;-68
2023/10/11 12:08:57;;;;;;;12.13;5.20;;;24.60;80.00;;;;;;5096315;28;20028;-67
2023/10/11 12:11:29;;;;;;;11.55;4.45;;;24.60;80.10;;;;;;5094826;28;20032;-67
2023/10/11 12:14:00;;;;;;;8.40;4.90;;;24.70;78.90;;;;;;5093028;28;20058;-69
2023/10/11 12:16:27;;;;;;;11.02;4.60;;;24.60;77.80;;;;;;5094827;28;20028;-67
2023/10/11 12:18:58;;;;;;;8.20;4.00;;;24.60;78.20;;;;;;5094264;28;20028;-69
2023/10/11 12:21:28;;;;;;;12.27;4.68;;;24.60;78.00;;;;;;5094438;28;20032;-67
2023/10/11 12:23:54;;;;;;;10.13;5.00;;;24.60;78.10;;;;;;5093289;28;20384;-68
2023/10/11 12:26:20;;;;;;;15.07;4.60;;;24.60;78.80;;;;;;5094002;28;20024;-69
2023/10/11 12:28:47;;;;;;;11.93;4.22;;;24.60;78.90;;;;;;5094182;28;20030;-68
2023/10/11 12:31:13;;;;;;;9.02;3.90;;;24.60;78.00;;;;;;5093654;28;20380;-67
2023/10/11 12:33:39;;;;;;;9.50;4.78;;;24.50;77.40;;;;;;5094235;28;20024;-68
2023/10/11 12:36:07;;;;;;;8.02;3.67;;;24.50;77.60;;;;;;5093581;28;20525;-68
2023/10/11 12:38:36;;;;;;;11.40;4.15;;;24.40;77.50;;;;;;5094407;28;20028;-68
2023/10/11 12:41:04;;;;;;;10.63;4.60;;;24.30;78.30;;;;;;5093771;28;20032;-68
2023/10/11 12:43:30;;;;;;;10.88;4.85;;;24.30;79.20;;;;;;5094111;28;20028;-69
2023/10/11 12:45:55;;;;;;;17.58;4.82;;;24.20;78.90;;;;;;5094043;28;20110;-67
2023/10/11 12:48:21;;;;;;;19.20;5.25;;;24.20;79.80;;;;;;5093336;28;20093;-67
2023/10/11 12:50:48;;;;;;;11.10;4.40;;;24.10;80.70;;;;;;5094232;28;20042;-69
2023/10/11 12:53:15;;;;;;;10.48;4.05;;;24.00;81.40;;;;;;5093476;28;20039;-68
2023/10/11 12:55:42;;;;;;;12.75;4.38;;;24.00;81.50;;;;;;5094040;28;20036;-67
2023/10/11 12:58:12;;;;;;;10.07;4.65;;;24.00;81.70;;;;;;5093152;28;20403;-68
2023/10/11 13:00:53;;;;;;;15.60;4.57;;;23.90;82.50;;;;;;5093711;28;20035;-68
2023/10/11 13:03:29;;;;;;;15.07;4.72;;;23.80;81.60;;;;;;5093327;28;20036;-68
2023/10/11 13:05:55;;;;;;;13.32;4.32;;;23.80;82.00;;;;;;5095155;28;20384;-68
2023/10/11 13:08:26;;;;;;;7.90;3.63;;;23.80;81.90;;;;;;5094177;28;20024;-68
2023/10/11 13:10:53;;;;;;;10.32;3.75;;;23.70;81.30;;;;;;5094776;28;20028;-69
2023/10/11 13:13:23;;;;;;;8.80;4.20;;;23.70;81.50;;;;;;5093779;28;20226;-69
2023/10/11 13:15:59;;;;;;;17.02;3.95;;;23.70;81.90;;;;;;5093512;28;20059;-67
2023/10/11 13:18:31;;;;;;;15.70;4.65;;;23.60;82.50;;;;;;5093839;28;20063;-67
2023/10/11 13:20:57;;;;;;;13.00;4.38;;;23.60;82.80;;;;;;5089959;28;20029;-68
2023/10/11 13:23:34;;;;;;;10.60;3.60;;;23.50;83.30;;;;;;5093062;28;20046;-67
2023/10/11 13:26:06;;;;;;;9.35;3.72;;;23.50;83.60;;;;;;5093186;28;20047;-69
2023/10/11 13:28:33;;;;;;;10.13;4.03;;;23.50;84.00;;;;;;5093422;28;20028;-68
2023/10/11 13:31:02;;;;;;;9.88;3.90;;;23.50;84.60;;;;;;5093219;28;20033;-69
2023/10/11 13:33:30;;;;;;;12.63;4.47;;;23.50;84.30;;;;;;5093268;28;20036;-68
2023/10/11 13:36:00;;;;;;;19.20;4.20;;;23.50;84.50;;;;;;5093419;28;20028;-68